sensor_id;sensor_type;location;lat;lon;timestamp;pressure;altitude;pressure_sealevel;temperature;humidity
28008;BME280;15333;50.010;20.020;2023-02-16T00:01:26;99755.34;;;0.28;100.00
28008;BME280;15333;50.010;20.020;2023-02-16T00:04:30;99760.66;;;0.24;100.00
28008;BME280;15333;50.010;20.020;2023-02-16T00:07:31;99758.06;;;0.22;100.00
28008;BME280;15333;50.010;20.020;2023-02-16T00:10:33;99756.38;;;0.18;100.00
28008;BME280;15333;50.010;20.020;2023-02-16T00:13:35;99756.41;;;0.17;100.00
28008;BME280;15333;50.010;20.020;2023-02-16T00:16:47;99753.84;;;0.14;100.00
28008;BME280;15333;50.010;20.020;2023-02-16T00:19:48;99760.03;;;0.11;100.00
28008;BME280;15333;50.010;20.020;2023-02-16T00:22:49;99754.00;;;0.06;100.00
28008;BME280;15333;50.010;20.020;2023-02-16T00:25:50;99750.53;;;0.03;100.00
28008;BME280;15333;50.010;20.020;2023-02-16T00:28:53;99746.28;;;-0.06;100.00
28008;BME280;15333;50.010;20.020;2023-02-16T00:31:57;99733.31;;;-0.15;100.00
28008;BME280;15333;50.010;20.020;2023-02-16T00:34:58;99739.50;;;-0.19;100.00
28008;BME280;15333;50.010;20.020;2023-02-16T00:37:59;99739.50;;;-0.19;100.00
28008;BME280;15333;50.010;20.020;2023-02-16T00:41:00;99727.34;;;-0.26;100.00
28008;BME280;15333;50.010;20.020;2023-02-16T00:44:01;99725.69;;;-0.30;100.00
28008;BME280;15333;50.010;20.020;2023-02-16T00:53:20;99727.59;;;-0.42;100.00
28008;BME280;15333;50.010;20.020;2023-02-16T00:56:21;99719.69;;;-0.40;100.00
28008;BME280;15333;50.010;20.020;2023-02-16T00:59:22;99715.44;;;-0.49;100.00
28008;BME280;15333;50.010;20.020;2023-02-16T01:02:23;99718.94;;;-0.47;100.00
28008;BME280;15333;50.010;20.020;2023-02-16T01:05:24;99706.78;;;-0.54;100.00
28008;BME280;15333;50.010;20.020;2023-02-16T01:08:25;99716.44;;;-0.54;100.00
28008;BME280;15333;50.010;20.020;2023-02-16T01:11:45;99699.13;;;-0.67;100.00
28008;BME280;15333;50.010;20.020;2023-02-16T01:14:50;99693.91;;;-0.70;100.00
28008;BME280;15333;50.010;20.020;2023-02-16T01:17:51;99695.72;;;-0.74;100.00
28008;BME280;15333;50.010;20.020;2023-02-16T01:20:55;99689.69;;;-0.79;100.00
28008;BME280;15333;50.010;20.020;2023-02-16T01:23:57;99684.47;;;-0.82;100.00
28008;BME280;15333;50.010;20.020;2023-02-16T01:26:58;99686.22;;;-0.84;100.00
28008;BME280;15333;50.010;20.020;2023-02-16T01:29:59;99685.34;;;-0.83;100.00
28008;BME280;15333;50.010;20.020;2023-02-16T01:33:00;99680.06;;;-0.82;100.00
28008;BME280;15333;50.010;20.020;2023-02-16T01:36:03;99668.69;;;-0.82;100.00
28008;BME280;15333;50.010;20.020;2023-02-16T01:39:06;99674.94;;;-0.89;100.00
28008;BME280;15333;50.010;20.020;2023-02-16T01:45:20;99666.03;;;-0.79;100.00
28008;BME280;15333;50.010;20.020;2023-02-16T01:48:26;99659.97;;;-0.84;100.00
28008;BME280;15333;50.010;20.020;2023-02-16T01:51:34;99668.72;;;-0.85;100.00
28008;BME280;15333;50.010;20.020;2023-02-16T01:54:48;99666.09;;;-0.85;100.00
28008;BME280;15333;50.010;20.020;2023-02-16T01:58:06;99655.59;;;-0.85;100.00
28008;BME280;15333;50.010;20.020;2023-02-16T02:01:43;99660.13;;;-0.93;100.00
28008;BME280;15333;50.010;20.020;2023-02-16T02:04:53;99657.56;;;-0.99;100.00
28008;BME280;15333;50.010;20.020;2023-02-16T02:08:33;99660.25;;;-1.02;100.00
28008;BME280;15333;50.010;20.020;2023-02-16T02:11:45;99650.72;;;-1.08;100.00
28008;BME280;15333;50.010;20.020;2023-02-16T02:14:48;99642.84;;;-1.09;100.00
28008;BME280;15333;50.010;20.020;2023-02-16T02:17:51;99641.25;;;-1.20;100.00
28008;BME280;15333;50.010;20.020;2023-02-16T02:28:22;99639.56;;;-1.24;100.00
28008;BME280;15333;50.010;20.020;2023-02-16T02:38:32;99645.88;;;-1.35;100.00
28008;BME280;15333;50.010;20.020;2023-02-16T02:41:45;99645.03;;;-1.39;100.00
28008;BME280;15333;50.010;20.020;2023-02-16T02:45:10;99646.78;;;-1.38;100.00
28008;BME280;15333;50.010;20.020;2023-02-16T02:48:14;99642.38;;;-1.36;100.00
28008;BME280;15333;50.010;20.020;2023-02-16T02:51:16;99644.94;;;-1.34;100.00
28008;BME280;15333;50.010;20.020;2023-02-16T02:54:37;99647.63;;;-1.37;100.00
28008;BME280;15333;50.010;20.020;2023-02-16T02:57:58;99639.81;;;-1.42;100.00
28008;BME280;15333;50.010;20.020;2023-02-16T03:01:19;99642.47;;;-1.43;100.00
28008;BME280;15333;50.010;20.020;2023-02-16T03:04:24;99645.16;;;-1.48;100.00
28008;BME280;15333;50.010;20.020;2023-02-16T03:07:28;99646.94;;;-1.50;100.00
28008;BME280;15333;50.010;20.020;2023-02-16T03:10:53;99646.84;;;-1.44;100.00
28008;BME280;15333;50.010;20.020;2023-02-16T03:14:35;99650.31;;;-1.42;100.00
28008;BME280;15333;50.010;20.020;2023-02-16T03:17:39;99659.03;;;-1.40;100.00
28008;BME280;15333;50.010;20.020;2023-02-16T03:20:59;99659.94;;;-1.41;100.00
28008;BME280;15333;50.010;20.020;2023-02-16T03:24:27;99660.91;;;-1.48;100.00
28008;BME280;15333;50.010;20.020;2023-02-16T03:27:47;99654.03;;;-1.56;100.00
28008;BME280;15333;50.010;20.020;2023-02-16T03:31:09;99654.06;;;-1.61;100.00
28008;BME280;15333;50.010;20.020;2023-02-16T03:34:11;99652.41;;;-1.68;100.00
28008;BME280;15333;50.010;20.020;2023-02-16T03:37:13;99655.84;;;-1.63;100.00
28008;BME280;15333;50.010;20.020;2023-02-16T03:40:15;99655.00;;;-1.65;100.00
28008;BME280;15333;50.010;20.020;2023-02-16T03:43:29;99652.41;;;-1.68;100.00
28008;BME280;15333;50.010;20.020;2023-02-16T03:46:30;99655.91;;;-1.66;100.00
28008;BME280;15333;50.010;20.020;2023-02-16T03:49:31;99649.75;;;-1.64;100.00
28008;BME280;15333;50.010;20.020;2023-02-16T03:52:32;99641.84;;;-1.62;100.00
28008;BME280;15333;50.010;20.020;2023-02-16T03:55:38;99643.63;;;-1.64;100.00
28008;BME280;15333;50.010;20.020;2023-02-16T03:58:39;99651.41;;;-1.56;100.00
28008;BME280;15333;50.010;20.020;2023-02-16T04:01:40;99648.81;;;-1.58;100.00
28008;BME280;15333;50.010;20.020;2023-02-16T04:04:41;99639.97;;;-1.52;100.00
28008;BME280;15333;50.010;20.020;2023-02-16T04:07:42;99646.97;;;-1.51;100.00
28008;BME280;15333;50.010;20.020;2023-02-16T04:10:43;99646.88;;;-1.47;100.00
28008;BME280;15333;50.010;20.020;2023-02-16T04:13:44;99647.75;;;-1.45;100.00
28008;BME280;15333;50.010;20.020;2023-02-16T04:16:45;99648.53;;;-1.40;100.00
28008;BME280;15333;50.010;20.020;2023-02-16T04:19:46;99640.66;;;-1.38;100.00
28008;BME280;15333;50.010;20.020;2023-02-16T04:22:47;99637.13;;;-1.36;100.00
28008;BME280;15333;50.010;20.020;2023-02-16T04:25:49;99641.47;;;-1.35;100.00
28008;BME280;15333;50.010;20.020;2023-02-16T04:28:50;99637.94;;;-1.34;100.00
28008;BME280;15333;50.010;20.020;2023-02-16T04:31:51;99638.84;;;-1.35;100.00
28008;BME280;15333;50.010;20.020;2023-02-16T04:34:52;99629.25;;;-1.36;100.00
28008;BME280;15333;50.010;20.020;2023-02-16T04:37:53;99639.75;;;-1.36;100.00
28008;BME280;15333;50.010;20.020;2023-02-16T04:40:54;99637.13;;;-1.37;100.00
28008;BME280;15333;50.010;20.020;2023-02-16T04:43:57;99633.53;;;-1.29;100.00
28008;BME280;15333;50.010;20.020;2023-02-16T04:46:58;99623.13;;;-1.36;100.00
28008;BME280;15333;50.010;20.020;2023-02-16T04:49:59;99620.34;;;-1.26;100.00
28008;BME280;15333;50.010;20.020;2023-02-16T04:53:00;99614.97;;;-1.20;100.00
28008;BME280;15333;50.010;20.020;2023-02-16T04:56:01;99617.56;;;-1.16;100.00
28008;BME280;15333;50.010;20.020;2023-02-16T04:59:02;99628.16;;;-1.21;100.00
28008;BME280;15333;50.010;20.020;2023-02-16T05:02:04;99621.09;;;-1.19;100.00
28008;BME280;15333;50.010;20.020;2023-02-16T05:05:05;99620.22;;;-1.20;100.00
28008;BME280;15333;50.010;20.020;2023-02-16T05:08:06;99616.72;;;-1.19;100.00
28008;BME280;15333;50.010;20.020;2023-02-16T05:11:07;99621.06;;;-1.16;100.00
28008;BME280;15333;50.010;20.020;2023-02-16T05:14:29;99617.56;;;-1.15;100.00
28008;BME280;15333;50.010;20.020;2023-02-16T05:17:43;99615.81;;;-1.14;100.00
28008;BME280;15333;50.010;20.020;2023-02-16T05:20:44;99618.56;;;-1.24;100.00
28008;BME280;15333;50.010;20.020;2023-02-16T05:24:06;99618.59;;;-1.27;100.00
28008;BME280;15333;50.010;20.020;2023-02-16T05:27:10;99616.78;;;-1.22;100.00
28008;BME280;15333;50.010;20.020;2023-02-16T05:30:12;99613.31;;;-1.24;100.00
28008;BME280;15333;50.010;20.020;2023-02-16T05:33:13;99616.94;;;-1.32;100.00
28008;BME280;15333;50.010;20.020;2023-02-16T05:36:14;99616.06;;;-1.34;100.00
28008;BME280;15333;50.010;20.020;2023-02-16T05:39:15;99618.59;;;-1.27;100.00
28008;BME280;15333;50.010;20.020;2023-02-16T05:42:16;99615.03;;;-1.23;100.00
28008;BME280;15333;50.010;20.020;2023-02-16T05:45:17;99619.44;;;-1.23;100.00
28008;BME280;15333;50.010;20.020;2023-02-16T05:48:17;99621.13;;;-1.21;100.00
28008;BME280;15333;50.010;20.020;2023-02-16T05:51:19;99619.34;;;-1.19;100.00
28008;BME280;15333;50.010;20.020;2023-02-16T05:54:20;99621.94;;;-1.14;100.00
28008;BME280;15333;50.010;20.020;2023-02-16T05:57:21;99627.19;;;-1.14;100.00
28008;BME280;15333;50.010;20.020;2023-02-16T06:00:22;99627.09;;;-1.08;100.00
28008;BME280;15333;50.010;20.020;2023-02-16T06:03:24;99625.31;;;-1.07;100.00
28008;BME280;15333;50.010;20.020;2023-02-16T06:06:25;99634.03;;;-1.05;100.00
28008;BME280;15333;50.010;20.020;2023-02-16T06:09:26;99629.59;;;-1.02;100.00
28008;BME280;15333;50.010;20.020;2023-02-16T06:12:27;99627.75;;;-0.95;100.00
28008;BME280;15333;50.010;20.020;2023-02-16T06:15:28;99625.00;;;-0.89;100.00
28008;BME280;15333;50.010;20.020;2023-02-16T06:18:28;99621.41;;;-0.82;100.00
28008;BME280;15333;50.010;20.020;2023-02-16T06:21:29;99629.94;;;-0.71;100.00
28008;BME280;15333;50.010;20.020;2023-02-16T06:24:30;99631.75;;;-0.73;100.00
28008;BME280;15333;50.010;20.020;2023-02-16T06:27:31;99626.31;;;-0.64;100.00
28008;BME280;15333;50.010;20.020;2023-02-16T06:30:32;99629.81;;;-0.62;100.00
28008;BME280;15333;50.010;20.020;2023-02-16T06:33:35;99619.19;;;-0.56;100.00
28008;BME280;15333;50.010;20.020;2023-02-16T06:36:36;99627.88;;;-0.51;100.00
28008;BME280;15333;50.010;20.020;2023-02-16T06:39:37;99625.94;;;-0.43;100.00
28008;BME280;15333;50.010;20.020;2023-02-16T06:42:37;99622.31;;;-0.35;100.00
28008;BME280;15333;50.010;20.020;2023-02-16T06:45:38;99623.94;;;-0.28;100.00
28008;BME280;15333;50.010;20.020;2023-02-16T06:48:39;99625.50;;;-0.18;100.00
28008;BME280;15333;50.010;20.020;2023-02-16T06:51:40;99627.13;;;-0.11;100.00
28008;BME280;15333;50.010;20.020;2023-02-16T06:54:41;99628.91;;;-0.13;100.00
28008;BME280;15333;50.010;20.020;2023-02-16T06:57:42;99634.00;;;-0.04;100.00
28008;BME280;15333;50.010;20.020;2023-02-16T07:00:43;99621.91;;;-0.14;100.00
28008;BME280;15333;50.010;20.020;2023-02-16T07:03:44;99627.09;;;-0.08;100.00
28008;BME280;15333;50.010;20.020;2023-02-16T07:06:45;99635.78;;;-0.06;100.00
28008;BME280;15333;50.010;20.020;2023-02-16T07:09:46;99627.88;;;-0.05;100.00
28008;BME280;15333;50.010;20.020;2023-02-16T07:12:47;99641.06;;;-0.06;100.00
28008;BME280;15333;50.010;20.020;2023-02-16T07:15:48;99634.13;;;-0.10;100.00
28008;BME280;15333;50.010;20.020;2023-02-16T07:18:49;99641.91;;;-0.06;100.00
28008;BME280;15333;50.010;20.020;2023-02-16T07:21:51;99637.41;;;0.01;100.00
28008;BME280;15333;50.010;20.020;2023-02-16T07:24:53;99641.00;;;-0.03;100.00
28008;BME280;15333;50.010;20.020;2023-02-16T07:27:57;99631.38;;;-0.04;100.00
28008;BME280;15333;50.010;20.020;2023-02-16T07:30:57;99637.59;;;-0.08;100.00
28008;BME280;15333;50.010;20.020;2023-02-16T07:33:58;99639.22;;;-0.01;100.00
28008;BME280;15333;50.010;20.020;2023-02-16T07:36:59;99640.88;;;0.03;100.00
28008;BME280;15333;50.010;20.020;2023-02-16T07:40:00;99645.94;;;0.14;100.00
28008;BME280;15333;50.010;20.020;2023-02-16T07:43:03;99645.72;;;0.24;100.00
28008;BME280;15333;50.010;20.020;2023-02-16T07:46:04;99646.53;;;0.28;100.00
28008;BME280;15333;50.010;20.020;2023-02-16T07:49:05;99638.34;;;0.42;100.00
28008;BME280;15333;50.010;20.020;2023-02-16T07:52:06;99640.19;;;0.36;100.00
28008;BME280;15333;50.010;20.020;2023-02-16T07:55:07;99640.88;;;0.46;100.00
28008;BME280;15333;50.010;20.020;2023-02-16T07:58:08;99638.03;;;0.57;100.00
28008;BME280;15333;50.010;20.020;2023-02-16T08:01:10;99642.44;;;0.55;100.00
28008;BME280;15333;50.010;20.020;2023-02-16T08:04:11;99643.16;;;0.63;100.00
28008;BME280;15333;50.010;20.020;2023-02-16T08:07:15;99635.88;;;0.74;100.00
28008;BME280;15333;50.010;20.020;2023-02-16T08:10:17;99632.94;;;0.86;100.00
28008;BME280;15333;50.010;20.020;2023-02-16T08:13:18;99629.19;;;0.98;100.00
28008;BME280;15333;50.010;20.020;2023-02-16T08:16:24;99635.06;;;1.07;100.00
28008;BME280;15333;50.010;20.020;2023-02-16T08:19:25;99644.50;;;1.17;100.00
28008;BME280;15333;50.010;20.020;2023-02-16T08:22:27;99634.66;;;1.26;100.00
28008;BME280;15333;50.010;20.020;2023-02-16T08:25:28;99637.88;;;1.37;100.00
28008;BME280;15333;50.010;20.020;2023-02-16T08:28:29;99636.72;;;1.48;100.00
28008;BME280;15333;50.010;20.020;2023-02-16T08:31:33;99634.03;;;1.50;100.00
28008;BME280;15333;50.010;20.020;2023-02-16T08:34:35;99633.28;;;1.45;100.00
28008;BME280;15333;50.010;20.020;2023-02-16T08:37:37;99632.91;;;1.60;100.00
28008;BME280;15333;50.010;20.020;2023-02-16T08:40:38;99623.00;;;1.68;100.00
28008;BME280;15333;50.010;20.020;2023-02-16T08:43:39;99620.34;;;1.70;100.00
28008;BME280;15333;50.010;20.020;2023-02-16T08:46:42;99619.38;;;1.72;100.00
28008;BME280;15333;50.010;20.020;2023-02-16T08:49:43;99616.25;;;1.90;100.00
28008;BME280;15333;50.010;20.020;2023-02-16T08:52:45;99610.44;;;2.09;100.00
28008;BME280;15333;50.010;20.020;2023-02-16T08:55:56;99611.84;;;2.20;100.00
28008;BME280;15333;50.010;20.020;2023-02-16T08:58:58;99608.41;;;2.18;100.00
28008;BME280;15333;50.010;20.020;2023-02-16T09:02:00;99605.44;;;2.29;100.00
28008;BME280;15333;50.010;20.020;2023-02-16T09:05:01;99608.06;;;2.30;99.70
28008;BME280;15333;50.010;20.020;2023-02-16T09:08:02;99611.59;;;2.29;98.93
28008;BME280;15333;50.010;20.020;2023-02-16T09:11:05;99607.38;;;2.53;98.36
28008;BME280;15333;50.010;20.020;2023-02-16T09:14:07;99601.44;;;2.74;97.56
28008;BME280;15333;50.010;20.020;2023-02-16T09:17:09;99610.31;;;3.00;95.77
28008;BME280;15333;50.010;20.020;2023-02-16T09:20:10;99611.38;;;2.94;94.34
28008;BME280;15333;50.010;20.020;2023-02-16T09:23:12;99611.44;;;2.93;93.98
28008;BME280;15333;50.010;20.020;2023-02-16T09:26:17;99605.56;;;3.11;93.73
28008;BME280;15333;50.010;20.020;2023-02-16T09:29:18;99601.19;;;3.10;92.32
28008;BME280;15333;50.010;20.020;2023-02-16T09:32:20;99595.69;;;3.16;91.40
28008;BME280;15333;50.010;20.020;2023-02-16T09:35:22;99591.03;;;3.24;91.36
28008;BME280;15333;50.010;20.020;2023-02-16T09:38:23;99588.16;;;3.57;89.63
28008;BME280;15333;50.010;20.020;2023-02-16T09:45:08;99571.34;;;3.58;88.57
28008;BME280;15333;50.010;20.020;2023-02-16T09:48:35;99572.75;;;3.92;88.27
28008;BME280;15333;50.010;20.020;2023-02-16T09:51:39;99578.25;;;4.11;87.20
28008;BME280;15333;50.010;20.020;2023-02-16T09:54:49;99583.97;;;3.99;85.93
28008;BME280;15333;50.010;20.020;2023-02-16T09:58:13;99582.16;;;4.01;85.82
28008;BME280;15333;50.010;20.020;2023-02-16T10:08:29;99594.41;;;4.27;84.42
28008;BME280;15333;50.010;20.020;2023-02-16T10:11:44;99588.50;;;4.44;84.54
28008;BME280;15333;50.010;20.020;2023-02-16T10:14:55;99580.31;;;4.50;83.66
28008;BME280;15333;50.010;20.020;2023-02-16T10:18:35;99580.56;;;4.44;83.38
28008;BME280;15333;50.010;20.020;2023-02-16T10:21:29;99594.22;;;4.78;83.05
28008;BME280;15333;50.010;20.020;2023-02-16T10:24:41;99584.28;;;4.83;81.97
28008;BME280;15333;50.010;20.020;2023-02-16T10:27:58;99587.91;;;4.82;82.39
28008;BME280;15333;50.010;20.020;2023-02-16T10:31:11;99586.63;;;5.12;81.37
28008;BME280;15333;50.010;20.020;2023-02-16T10:37:53;99576.16;;;5.09;81.12
28008;BME280;15333;50.010;20.020;2023-02-16T10:41:06;99579.38;;;5.18;81.21
28008;BME280;15333;50.010;20.020;2023-02-16T10:44:21;99576.75;;;5.38;81.03
28008;BME280;15333;50.010;20.020;2023-02-16T10:47:36;99573.19;;;5.79;79.85
28008;BME280;15333;50.010;20.020;2023-02-16T10:53:58;99567.75;;;5.82;78.29
28008;BME280;15333;50.010;20.020;2023-02-16T10:57:05;99570.94;;;6.11;78.45
28008;BME280;15333;50.010;20.020;2023-02-16T11:00:11;99556.63;;;5.95;76.34
28008;BME280;15333;50.010;20.020;2023-02-16T11:03:15;99553.50;;;6.24;76.01
28008;BME280;15333;50.010;20.020;2023-02-16T11:06:20;99551.94;;;6.39;74.39
28008;BME280;15333;50.010;20.020;2023-02-16T11:09:27;99545.88;;;6.54;74.67
28008;BME280;15333;50.010;20.020;2023-02-16T11:15:35;99537.50;;;6.44;73.42
28008;BME280;15333;50.010;20.020;2023-02-16T11:18:42;99531.25;;;6.45;73.43
28008;BME280;15333;50.010;20.020;2023-02-16T11:21:53;99523.53;;;6.58;73.33
28008;BME280;15333;50.010;20.020;2023-02-16T11:31:35;99517.13;;;6.81;73.10
28008;BME280;15333;50.010;20.020;2023-02-16T11:34:43;99506.31;;;6.84;73.12
28008;BME280;15333;50.010;20.020;2023-02-16T11:37:46;99492.81;;;6.88;73.07
28008;BME280;15333;50.010;20.020;2023-02-16T11:40:50;99496.09;;;6.93;73.45
28008;BME280;15333;50.010;20.020;2023-02-16T11:43:53;99482.06;;;6.90;72.71
28008;BME280;15333;50.010;20.020;2023-02-16T11:46:54;99479.13;;;6.96;72.85
28008;BME280;15333;50.010;20.020;2023-02-16T11:53:27;99475.13;;;7.22;72.67
28008;BME280;15333;50.010;20.020;2023-02-16T11:56:31;99475.28;;;7.19;72.61
28008;BME280;15333;50.010;20.020;2023-02-16T11:59:38;99475.22;;;7.03;72.05
28008;BME280;15333;50.010;20.020;2023-02-16T12:09:14;99451.56;;;7.31;72.35
28008;BME280;15333;50.010;20.020;2023-02-16T12:15:59;99443.88;;;7.60;70.84
28008;BME280;15333;50.010;20.020;2023-02-16T12:19:21;99449.47;;;7.71;71.13
28008;BME280;15333;50.010;20.020;2023-02-16T12:22:38;99440.56;;;7.55;70.58
28008;BME280;15333;50.010;20.020;2023-02-16T12:25:57;99437.25;;;7.67;70.95
28008;BME280;15333;50.010;20.020;2023-02-16T12:36:22;99433.75;;;7.82;71.27
28008;BME280;15333;50.010;20.020;2023-02-16T12:39:24;99430.66;;;7.74;70.47
28008;BME280;15333;50.010;20.020;2023-02-16T12:45:41;99418.41;;;7.87;70.81
28008;BME280;15333;50.010;20.020;2023-02-16T12:49:10;99414.88;;;7.86;70.65
28008;BME280;15333;50.010;20.020;2023-02-16T12:52:42;99400.94;;;7.97;70.22
28008;BME280;15333;50.010;20.020;2023-02-16T12:55:49;99402.31;;;8.04;69.35
28008;BME280;15333;50.010;20.020;2023-02-16T12:58:59;99404.06;;;8.21;69.33
28008;BME280;15333;50.010;20.020;2023-02-16T13:02:13;99391.41;;;7.93;69.33
28008;BME280;15333;50.010;20.020;2023-02-16T13:05:28;99386.19;;;8.23;69.64
28008;BME280;15333;50.010;20.020;2023-02-16T13:12:34;99382.03;;;8.49;68.83
28008;BME280;15333;50.010;20.020;2023-02-16T13:15:40;99387.78;;;8.57;68.58
28008;BME280;15333;50.010;20.020;2023-02-16T13:18:46;99383.41;;;8.56;68.18
28008;BME280;15333;50.010;20.020;2023-02-16T13:44:06;99370.16;;;8.84;65.51
28008;BME280;15333;50.010;20.020;2023-02-16T13:47:16;99369.63;;;8.93;64.83
28008;BME280;15333;50.010;20.020;2023-02-16T13:53:25;99361.75;;;8.76;64.65
28008;BME280;15333;50.010;20.020;2023-02-16T14:02:55;99357.72;;;8.69;64.46
28008;BME280;15333;50.010;20.020;2023-02-16T14:09:44;99358.91;;;8.79;64.20
28008;BME280;15333;50.010;20.020;2023-02-16T14:12:46;99359.09;;;8.76;65.30
28008;BME280;15333;50.010;20.020;2023-02-16T14:15:50;99360.72;;;8.79;64.97
28008;BME280;15333;50.010;20.020;2023-02-16T14:19:01;99367.09;;;8.76;65.45
28008;BME280;15333;50.010;20.020;2023-02-16T14:22:09;99367.00;;;8.78;64.99
28008;BME280;15333;50.010;20.020;2023-02-16T14:31:39;99362.03;;;8.72;65.81
28008;BME280;15333;50.010;20.020;2023-02-16T14:37:54;99358.44;;;8.57;66.03
28008;BME280;15333;50.010;20.020;2023-02-16T14:40:59;99352.91;;;8.60;65.94
28008;BME280;15333;50.010;20.020;2023-02-16T14:47:23;99360.53;;;8.52;66.13
28008;BME280;15333;50.010;20.020;2023-02-16T14:51:13;99364.50;;;8.45;66.49
28008;BME280;15333;50.010;20.020;2023-02-16T15:01:18;99349.72;;;8.23;67.87
28008;BME280;15333;50.010;20.020;2023-02-16T15:04:31;99345.25;;;8.08;67.12
28008;BME280;15333;50.010;20.020;2023-02-16T15:07:33;99341.19;;;8.01;68.01
28008;BME280;15333;50.010;20.020;2023-02-16T15:10:37;99341.47;;;7.81;69.12
28008;BME280;15333;50.010;20.020;2023-02-16T15:13:39;99335.44;;;7.77;68.61
28008;BME280;15333;50.010;20.020;2023-02-16T15:16:40;99330.88;;;7.64;69.52
28008;BME280;15333;50.010;20.020;2023-02-16T15:19:41;99336.19;;;7.64;69.69
28008;BME280;15333;50.010;20.020;2023-02-16T15:22:54;99330.75;;;7.50;69.75
28008;BME280;15333;50.010;20.020;2023-02-16T15:26:02;99343.47;;;7.44;70.31
28008;BME280;15333;50.010;20.020;2023-02-16T15:32:17;99340.69;;;7.30;71.39
28008;BME280;15333;50.010;20.020;2023-02-16T15:35:34;99338.09;;;7.29;71.31
28008;BME280;15333;50.010;20.020;2023-02-16T15:38:54;99344.16;;;7.15;71.41
28008;BME280;15333;50.010;20.020;2023-02-16T15:45:32;99352.16;;;7.15;71.82
28008;BME280;15333;50.010;20.020;2023-02-16T15:48:37;99358.19;;;7.01;72.22
28008;BME280;15333;50.010;20.020;2023-02-16T15:51:38;99355.00;;;6.95;72.68
28008;BME280;15333;50.010;20.020;2023-02-16T15:54:41;99360.47;;;6.92;72.97
28008;BME280;15333;50.010;20.020;2023-02-16T15:57:42;99358.06;;;6.87;73.16
28008;BME280;15333;50.010;20.020;2023-02-16T16:00:44;99359.22;;;6.82;73.79
28008;BME280;15333;50.010;20.020;2023-02-16T16:03:45;99364.06;;;6.74;74.41
28008;BME280;15333;50.010;20.020;2023-02-16T16:06:48;99360.56;;;6.73;74.62
28008;BME280;15333;50.010;20.020;2023-02-16T16:09:50;99360.00;;;6.66;75.15
28008;BME280;15333;50.010;20.020;2023-02-16T16:12:57;99354.50;;;6.69;75.12
28008;BME280;15333;50.010;20.020;2023-02-16T16:15:59;99358.28;;;6.65;75.79
28008;BME280;15333;50.010;20.020;2023-02-16T16:19:07;99351.38;;;6.61;75.90
28008;BME280;15333;50.010;20.020;2023-02-16T16:22:32;99356.88;;;6.58;76.29
28008;BME280;15333;50.010;20.020;2023-02-16T16:28:35;99354.84;;;6.46;77.65
28008;BME280;15333;50.010;20.020;2023-02-16T16:31:39;99348.41;;;6.50;77.46
28008;BME280;15333;50.010;20.020;2023-02-16T16:34:40;99359.66;;;6.38;77.87
28008;BME280;15333;50.010;20.020;2023-02-16T16:37:42;99358.63;;;6.41;78.17
28008;BME280;15333;50.010;20.020;2023-02-16T16:40:49;99350.47;;;6.26;78.67
28008;BME280;15333;50.010;20.020;2023-02-16T16:43:53;99354.78;;;6.29;78.71
28008;BME280;15333;50.010;20.020;2023-02-16T16:46:55;99349.78;;;6.23;79.33
28008;BME280;15333;50.010;20.020;2023-02-16T16:49:59;99350.38;;;6.11;80.20
28008;BME280;15333;50.010;20.020;2023-02-16T16:53:00;99352.25;;;6.09;80.80
28008;BME280;15333;50.010;20.020;2023-02-16T16:56:06;99360.72;;;5.98;81.82
28008;BME280;15333;50.010;20.020;2023-02-16T16:59:08;99362.97;;;5.88;82.84
28008;BME280;15333;50.010;20.020;2023-02-16T17:02:09;99361.00;;;5.73;84.14
28008;BME280;15333;50.010;20.020;2023-02-16T17:05:10;99366.44;;;5.70;85.20
28008;BME280;15333;50.010;20.020;2023-02-16T17:08:11;99360.78;;;5.59;86.04
28008;BME280;15333;50.010;20.020;2023-02-16T17:11:25;99367.03;;;5.58;87.33
28008;BME280;15333;50.010;20.020;2023-02-16T17:14:26;99366.22;;;5.56;87.05
28008;BME280;15333;50.010;20.020;2023-02-16T17:17:27;99369.91;;;5.54;87.28
28008;BME280;15333;50.010;20.020;2023-02-16T17:20:28;99366.72;;;5.45;87.56
28008;BME280;15333;50.010;20.020;2023-02-16T17:23:29;99379.19;;;5.43;88.14
28008;BME280;15333;50.010;20.020;2023-02-16T17:26:30;99371.31;;;5.42;88.78
28008;BME280;15333;50.010;20.020;2023-02-16T17:29:31;99383.13;;;5.35;88.81
28008;BME280;15333;50.010;20.020;2023-02-16T17:32:32;99372.00;;;5.27;89.05
28008;BME280;15333;50.010;20.020;2023-02-16T17:35:34;99374.00;;;5.22;89.41
28008;BME280;15333;50.010;20.020;2023-02-16T17:38:36;99386.69;;;5.15;90.00
28008;BME280;15333;50.010;20.020;2023-02-16T17:41:37;99393.19;;;5.08;90.19
28008;BME280;15333;50.010;20.020;2023-02-16T17:44:38;99396.03;;;5.03;90.29
28008;BME280;15333;50.010;20.020;2023-02-16T17:47:39;99391.94;;;4.96;89.93
28008;BME280;15333;50.010;20.020;2023-02-16T17:50:40;99387.81;;;4.89;89.87
28008;BME280;15333;50.010;20.020;2023-02-16T17:53:41;99384.63;;;4.81;90.22
28008;BME280;15333;50.010;20.020;2023-02-16T17:56:44;99385.00;;;4.72;89.78
28008;BME280;15333;50.010;20.020;2023-02-16T17:59:44;99378.84;;;4.71;88.62
28008;BME280;15333;50.010;20.020;2023-02-16T18:02:46;99382.47;;;4.69;87.96
28008;BME280;15333;50.010;20.020;2023-02-16T18:05:48;99392.41;;;4.64;87.46
28008;BME280;15333;50.010;20.020;2023-02-16T18:08:49;99391.09;;;4.54;87.67
28008;BME280;15333;50.010;20.020;2023-02-16T18:11:51;99399.81;;;4.56;86.96
28008;BME280;15333;50.010;20.020;2023-02-16T18:14:52;99391.47;;;4.45;87.27
28008;BME280;15333;50.010;20.020;2023-02-16T18:17:53;99396.88;;;4.42;87.22
28008;BME280;15333;50.010;20.020;2023-02-16T18:20:54;99392.59;;;4.39;87.63
28008;BME280;15333;50.010;20.020;2023-02-16T18:23:55;99390.50;;;4.25;87.89
28008;BME280;15333;50.010;20.020;2023-02-16T18:26:56;99393.31;;;4.21;88.02
28008;BME280;15333;50.010;20.020;2023-02-16T18:29:57;99398.00;;;4.14;88.47
28008;BME280;15333;50.010;20.020;2023-02-16T18:32:58;99402.44;;;4.14;88.76